Latest Weather Observations for Rocky Gully South

IDW60801

Issued at 7:35 pm WST Thursday 21 August 2014 (issued every 30 minutes, with the page automatically refreshed every 10 minutes)

About weather observations | Map of weather stations | Latest weather observations for WA | Other Formats
Station Details ID: 009964 Name: ROCKY GULLY Lat: -34.57 Lon: 117.01 Height: 250.0 m
Data from the previous 72 hours. | See also: Recent months at Rocky Gully South
Date/Time
WST
Temp
°C
App
Temp
°C
Dew
Point
Rel
Hum
%
Delta-T
°C
Wind Press
QNH
hPa
Press
MSL
hPa
Rain
since 9 am
mm
Dir
 
Spd
km/h
Gust
km/h
Spd
kts
Gust
kts
21/07:30pm 11.6 8.9 7.3 75 2.1 NNW 11 15 6 8 - - 2.6
21/07:00pm 11.5 8.9 7.8 78 1.8 NW 11 17 6 9 - - 2.6
21/06:30pm 11.9 9.7 7.8 76 2.0 NW 9 13 5 7 - - 2.6
21/06:00pm 12.4 10.2 7.9 74 2.2 NW 9 13 5 7 - - 2.6
21/05:30pm 13.2 11.2 8.5 73 2.4 NW 9 17 5 9 - - 2.6
21/05:00pm 14.2 11.9 9.0 71 2.7 WNW 11 24 6 13 - - 2.6
21/04:30pm 14.3 11.4 9.7 74 2.4 WNW 15 22 8 12 - - 2.6
21/04:00pm 14.3 12.2 9.9 75 2.3 WNW 11 24 6 13 - - 2.6
21/03:30pm 14.4 11.7 10.2 76 2.2 W 15 26 8 14 - - 2.6
21/03:00pm 13.8 10.7 10.2 79 1.9 W 17 32 9 17 - - 2.6
21/02:30pm 14.9 13.2 11.3 79 1.9 W 11 20 6 11 - - 2.6
21/02:00pm 13.9 11.9 11.6 86 1.2 WNW 13 22 7 12 - - 2.6
21/01:30pm 13.4 11.4 11.5 88 1.0 W 13 26 7 14 - - 2.6
21/01:00pm 14.1 12.3 12.1 88 1.1 W 13 28 7 15 - - 0.8
21/12:30pm 14.3 12.0 11.6 84 1.5 WSW 15 24 8 13 - - 0.2
21/12:00pm 16.5 13.4 10.4 67 3.3 NW 17 32 9 17 - - 0.2
21/11:30am 16.7 12.2 10.1 65 3.5 NW 24 37 13 20 - - 0.2
21/11:00am 16.6 12.5 10.2 66 3.4 NW 22 39 12 21 - - 0.2
21/10:30am 16.4 12.8 10.5 68 3.2 NW 20 35 11 19 - - 0.2
21/10:00am 16.0 12.6 10.5 70 2.9 NW 19 32 10 17 - - 0.2
21/09:30am 15.4 11.8 10.6 73 2.6 NW 20 33 11 18 - - 0.2
21/09:00am 14.7 11.4 11.5 81 1.7 WNW 20 33 11 18 - - 4.8
21/08:30am 13.8 10.8 11.8 88 1.1 WNW 19 35 10 19 - - 4.8
21/08:00am 13.9 11.5 12.6 92 0.7 WNW 17 33 9 18 - - 4.8
21/07:30am 13.9 11.8 12.5 91 0.8 NW 15 26 8 14 - - 4.4
21/07:00am 13.8 10.8 12.4 91 0.8 N 20 39 11 21 - - 3.8
21/06:30am 13.7 10.6 12.1 90 0.9 N 20 33 11 18 - - 3.8
21/06:00am 13.7 10.7 11.9 89 1.0 N 19 30 10 16 - - 2.6
21/05:30am 13.2 10.4 11.4 89 1.0 N 17 28 9 15 - - 2.0
21/05:00am 13.5 10.3 11.2 86 1.2 N 19 32 10 17 - - 0.4
21/04:30am 13.3 9.7 10.7 84 1.4 N 20 33 11 18 - - 0.0
21/04:00am 13.1 9.5 10.6 85 1.3 N 20 32 11 17 - - 0.0
21/03:30am 12.9 9.9 10.6 86 1.2 N 17 32 9 17 - - 0.0
21/03:00am 12.8 9.4 10.5 86 1.2 N 19 33 10 18 - - 0.0
21/02:30am 13.0 9.9 10.4 84 1.4 N 17 24 9 13 - - 0.0
21/02:00am 12.8 9.3 10.2 84 1.4 N 19 30 10 16 - - 0.0
21/01:30am 12.8 9.7 10.2 84 1.4 N 17 30 9 16 - - 0.0
21/01:00am 13.0 9.9 10.2 83 1.5 N 17 28 9 15 - - 0.0
21/12:30am 12.9 10.1 9.9 82 1.6 N 15 24 8 13 - - 0.0
21/12:00am 12.8 10.0 10.0 83 1.5 N 15 24 8 13 - - 0.0
 
Date/Time
WST
Temp
°C
App
Temp
°C
Dew
Point
Rel
Hum
%
Delta-T
°C
Wind Press
QNH
hPa
Press
MSL
hPa
Rain
since 9 am
mm
Dir
 
Spd
km/h
Gust
km/h
Spd
kts
Gust
kts
20/11:30pm 12.5 9.7 9.9 84 1.3 N 15 28 8 15 - - 0.0
20/11:00pm 12.7 9.9 10.1 84 1.4 N 15 26 8 14 - - 0.0
20/10:30pm 12.7 10.0 10.2 85 1.3 N 15 28 8 15 - - 0.0
20/10:00pm 12.4 10.1 10.3 87 1.1 N 13 20 7 11 - - 0.0
20/09:30pm 12.3 9.6 10.4 88 1.0 N 15 20 8 11 - - 0.0
20/09:00pm 12.3 10.3 10.2 87 1.1 N 11 17 6 9 - - 0.0
20/08:30pm 12.7 11.1 10.1 84 1.4 N 9 17 5 9 - - 0.0
20/08:00pm 13.2 12.0 10.2 82 1.6 N 7 13 4 7 - - 0.0
20/07:30pm 13.6 11.9 10.0 79 1.9 N 9 15 5 8 - - 0.0
20/07:00pm 14.5 12.4 9.9 74 2.4 N 11 17 6 9 - - 0.0
20/06:30pm 15.1 12.7 9.9 71 2.7 N 13 22 7 12 - - 0.0
20/06:00pm 15.8 13.0 10.1 69 3.0 NNW 15 26 8 14 - - 0.0
20/05:30pm 15.9 14.0 10.4 70 2.9 N 11 19 6 10 - - 0.0
20/05:00pm 16.1 15.6 10.8 71 2.9 N 4 9 2 5 - - 0.0
20/04:30pm 17.1 15.3 10.7 66 3.5 NNW 11 15 6 8 - - 0.0
20/04:00pm 16.9 15.5 11.0 68 3.2 NW 9 13 5 7 - - 0.0
20/03:30pm 17.1 15.8 11.2 68 3.2 NNW 9 17 5 9 - - 0.0
20/03:00pm 17.0 14.1 9.7 62 3.9 NNW 15 22 8 12 - - 0.0
20/02:30pm 17.3 14.5 10.0 62 3.9 N 15 28 8 15 - - 0.0
20/02:00pm 16.8 13.9 9.5 62 3.9 N 15 26 8 14 - - 0.0
20/01:30pm 16.3 13.8 11.0 71 2.9 NNW 15 20 8 11 - - 0.0
20/01:00pm 15.8 13.2 9.2 65 3.4 NNW 13 20 7 11 - - 0.0
20/12:30pm 16.4 13.9 9.8 65 3.5 NNW 13 20 7 11 - - 0.0
20/12:00pm 16.6 13.3 9.5 63 3.7 NNW 17 26 9 14 - - 0.0
20/11:30am 15.7 12.6 8.7 63 3.6 NNW 15 26 8 14 - - 0.0
20/11:00am 15.7 13.6 9.6 67 3.2 NNW 11 19 6 10 - - 0.0
20/10:30am 14.8 12.8 10.0 73 2.5 NNW 11 24 6 13 - - 0.0
20/10:00am 13.7 12.0 11.2 85 1.3 NNW 11 17 6 9 - - 0.0
20/09:30am 13.0 10.9 11.1 88 1.0 NNW 13 19 7 10 - - 0.0
20/09:00am 12.2 10.8 10.8 91 0.7 N 9 15 5 8 - - 0.0
20/08:30am 11.8 10.7 10.5 92 0.7 N 7 13 4 7 - - 0.0
20/08:00am 10.3 8.8 9.2 93 0.6 N 7 11 4 6 - - 0.0
20/07:30am 10.0 8.0 8.8 92 0.6 N 9 15 5 8 - - 0.0
20/07:00am 10.3 8.4 9.1 92 0.6 N 9 13 5 7 - - 0.0
20/06:30am 10.2 8.7 9.0 92 0.6 N 7 9 4 5 - - 0.0
20/06:00am 10.1 8.5 8.9 92 0.6 N 7 11 4 6 - - 0.0
20/05:30am 9.9 8.3 8.7 92 0.6 N 7 11 4 6 - - 0.0
20/05:00am 9.7 8.1 8.6 93 0.5 N 7 9 4 5 - - 0.0
20/04:30am 9.5 8.0 8.4 93 0.5 NNW 6 7 3 4 - - 0.0
20/04:00am 9.8 8.2 8.7 93 0.5 N 7 9 4 5 - - 0.0
20/03:30am 9.9 8.5 8.8 93 0.5 N 6 7 3 4 - - 0.0
20/03:00am 9.7 8.2 8.6 93 0.5 N 6 9 3 5 - - 0.0
20/02:30am 9.8 8.4 8.7 93 0.5 N 6 7 3 4 - - 0.0
20/02:00am 9.3 7.6 8.2 93 0.5 NNE 7 9 4 5 - - 0.0
20/01:30am 9.4 7.7 8.2 92 0.6 N 7 11 4 6 - - 0.0
20/01:00am 10.0 8.4 8.8 92 0.6 N 7 13 4 7 - - 0.0
20/12:30am 9.8 8.2 8.6 92 0.6 N 7 9 4 5 - - 0.0
20/12:00am 9.9 8.2 8.5 91 0.7 N 7 13 4 7 - - 0.0
 
Date/Time
WST
Temp
°C
App
Temp
°C
Dew
Point
Rel
Hum
%
Delta-T
°C
Wind Press
QNH
hPa
Press
MSL
hPa
Rain
since 9 am
mm
Dir
 
Spd
km/h
Gust
km/h
Spd
kts
Gust
kts
19/11:30pm 10.5 8.9 8.9 90 0.8 NNE 7 11 4 6 - - 0.0
19/11:00pm 11.3 9.5 9.6 89 0.9 NE 9 15 5 8 - - 0.0
19/10:30pm 11.3 9.5 9.6 89 0.9 NE 9 17 5 9 - - 0.0
19/10:00pm 10.6 9.0 8.9 89 0.9 NE 7 11 4 6 - - 0.0
19/09:30pm 9.5 8.6 7.8 89 0.8 NE 2 7 1 4 - - 0.0
19/09:00pm 9.1 8.0 7.1 87 1.0 ENE 2 6 1 3 - - 0.0
19/08:30pm 10.5 8.9 8.1 85 1.2 E 6 9 3 5 - - 0.0
19/08:00pm 10.6 9.4 8.0 84 1.3 NNE 4 7 2 4 - - 0.0
19/07:30pm 11.1 9.6 8.3 83 1.4 ENE 6 7 3 4 - - 0.0
19/07:00pm 11.3 9.7 8.2 81 1.5 ENE 6 9 3 5 - - 0.0
19/06:30pm 12.7 11.1 8.2 74 2.3 ENE 6 9 3 5 - - 0.0
19/06:00pm 13.6 12.1 8.4 71 2.6 NE 6 7 3 4 - - 0.0
19/05:30pm 14.5 13.0 8.5 67 3.1 ENE 6 7 3 4 - - 0.0
19/05:00pm 16.1 15.9 9.1 63 3.7 CALM 0 0 0 0 - - 0.0
19/04:30pm 16.3 14.7 7.8 57 4.3 ESE 6 7 3 4 - - 0.0
19/04:00pm 17.2 15.2 8.6 57 4.5 ESE 9 15 5 8 - - 0.0
19/03:30pm 17.7 16.2 8.3 54 4.9 ENE 6 13 3 7 - - 0.0
19/03:00pm 17.7 16.0 8.3 54 4.9 NE 7 11 4 6 - - 0.0
19/02:30pm 16.9 15.1 8.1 56 4.5 ESE 7 11 4 6 - - 0.0
19/02:00pm 17.0 15.2 9.4 61 4.0 SE 9 13 5 7 - - 0.0
19/01:30pm 16.5 15.2 9.9 65 3.5 ENE 7 15 4 8 - - 0.0
19/01:00pm 16.0 14.1 9.2 64 3.6 SE 9 13 5 7 - - 0.0
19/12:30pm 16.4 15.4 10.9 70 3.0 ESE 7 11 4 6 - - 0.0
19/12:00pm 14.8 12.7 9.8 72 2.6 SSE 11 17 6 9 - - 0.0
19/11:30am 15.4 13.2 9.3 67 3.2 SE 11 19 6 10 - - 0.0
19/11:00am 14.7 12.5 9.3 70 2.8 S 11 19 6 10 - - 0.0
19/10:30am 14.4 13.0 10.8 79 1.9 S 9 15 5 8 - - 0.0
19/10:00am 13.5 12.8 11.9 90 0.9 SSW 7 9 4 5 - - 0.0
19/09:30am 12.9 11.7 11.6 92 0.7 SW 9 11 5 6 - - 0.0
19/09:00am 12.5 11.7 11.6 94 0.5 SW 7 11 4 6 - - 1.4
19/08:30am 11.7 10.9 10.9 95 0.4 W 6 7 3 4 - - 1.4
19/08:00am 10.4 9.6 9.6 95 0.4 WNW 4 7 2 4 - - 1.4
19/07:30am 9.6 9.3 8.8 95 0.4 CALM 0 0 0 0 - - 1.2
19/07:00am 9.1 8.7 8.2 94 0.4 CALM 0 0 0 0 - - 1.2
19/06:30am 9.6 8.9 8.7 94 0.4 NW 2 7 1 4 - - 1.2
19/06:00am 9.8 8.4 8.9 94 0.4 NNW 6 7 3 4 - - 1.2
19/05:30am 10.1 9.2 9.2 94 0.5 NW 4 9 2 5 - - 1.2
19/05:00am 10.4 10.3 9.5 94 0.5 CALM 0 6 0 3 - - 1.2
19/04:30am 10.9 9.8 10.0 94 0.5 W 6 9 3 5 - - 1.2
19/04:00am 11.1 10.4 10.2 94 0.5 W 4 7 2 4 - - 1.2
19/03:30am 11.2 10.2 10.3 94 0.5 W 6 11 3 6 - - 1.2
19/03:00am 11.2 10.0 10.3 94 0.5 WNW 7 11 4 6 - - 1.2
19/02:30am 11.2 10.2 10.3 94 0.5 W 6 11 3 6 - - 1.2
19/02:00am 11.3 10.3 10.4 94 0.5 W 6 9 3 5 - - 1.2
19/01:30am 11.3 10.1 10.4 94 0.5 W 7 13 4 7 - - 1.2
19/01:00am 11.3 10.1 10.4 94 0.5 W 7 11 4 6 - - 1.2
19/12:30am 11.4 10.3 10.5 94 0.5 WNW 7 11 4 6 - - 1.2
19/12:00am 11.4 10.2 10.3 93 0.6 WNW 7 11 4 6 - - 1.2
 
Date/Time
WST
Temp
°C
App
Temp
°C
Dew
Point
Rel
Hum
%
Delta-T
°C
Wind Press
QNH
hPa
Press
MSL
hPa
Rain
since 9 am
mm
Dir
 
Spd
km/h
Gust
km/h
Spd
kts
Gust
kts
18/11:30pm 11.4 10.2 10.3 93 0.6 WNW 7 13 4 7 - - 1.2
18/11:00pm 11.4 9.8 10.3 93 0.6 W 9 13 5 7 - - 1.2
18/10:30pm 11.5 10.0 10.4 93 0.6 NW 9 15 5 8 - - 1.2
18/10:00pm 11.5 10.0 10.4 93 0.6 NW 9 15 5 8 - - 1.2
18/09:30pm 11.6 10.1 10.5 93 0.6 NW 9 17 5 9 - - 1.2
18/09:00pm 11.5 10.3 10.2 92 0.7 NW 7 13 4 7 - - 1.2
18/08:30pm 11.6 10.4 10.3 92 0.7 NW 7 9 4 5 - - 1.2
18/08:00pm 11.5 10.4 10.1 91 0.7 W 6 9 3 5 - - 1.2

Other Formats:

Comma delimited format used in spreadsheet applications
http://www.bom.gov.au/fwo/IDW60801/IDW60801.94631.axf

JavaScript Object Notation format (JSON) in row-major order
http://www.bom.gov.au/fwo/IDW60801/IDW60801.94631.json